Time;durP1;ratioP1;P1;durP2;ratioP2;P2;SDS_P1;SDS_P2;PMS_P1;PMS_P2;Temp;Humidity;BMP_temperature;BMP_pressure;BME280_temperature;BME280_humidity;BME280_pressure;Samples;Min_cycle;Max_cycle;Signal;HPM_P1;HPM_P2
2022/12/11 00:00:15;;;;;;;22.27;15.88;;;0.10;99.90;;;-1.16;100.00;100661.41;4197481;28;20064;-73
2022/12/11 00:02:16;;;;;;;21.77;15.88;;;0.00;99.90;;;-1.21;100.00;100653.06;4203520;28;20025;-73
2022/12/11 00:04:16;;;;;;;20.23;15.13;;;0.00;99.90;;;-1.24;100.00;100655.81;4202940;28;20021;-73
2022/12/11 00:06:21;;;;;;;23.20;16.05;;;0.00;99.90;;;-1.30;100.00;100656.16;4203519;28;20060;-73
2022/12/11 00:08:22;;;;;;;;;;;-0.10;99.90;;;-1.40;100.00;100652.38;4202199;28;20029;-73
2022/12/11 00:10:23;;;;;;;20.85;14.25;;;-0.10;99.90;;;-1.45;100.00;100651.78;4203642;28;19958;-72
2022/12/11 00:12:23;;;;;;;24.98;18.00;;;-0.20;99.90;;;-1.48;100.00;100651.97;4202774;28;20032;-73
2022/12/11 00:14:24;;;;;;;24.90;16.20;;;-0.20;99.90;;;-1.57;100.00;100644.69;4203527;28;20043;-73
2022/12/11 00:16:25;;;;;;;25.00;17.40;;;-0.30;99.90;;;-1.58;100.00;100640.41;4202560;28;20519;-73
2022/12/11 00:18:26;;;;;;;24.23;15.75;;;-0.40;99.90;;;-1.63;100.00;100645.00;4202153;28;20021;-72
2022/12/11 00:20:27;;;;;;;25.33;16.73;;;-0.40;99.90;;;-1.60;100.00;100644.84;4185676;28;20021;-72
2022/12/11 00:22:30;;;;;;;26.08;17.30;;;-0.40;99.90;;;-1.65;100.00;100631.34;4203586;28;20021;-73
2022/12/11 00:24:31;;;;;;;27.13;19.70;;;-0.50;99.90;;;-1.61;100.00;100632.03;4202457;28;20508;-72
2022/12/11 00:26:32;;;;;;;27.00;20.23;;;-0.50;99.90;;;-1.65;100.00;100630.50;4203374;28;20059;-73
2022/12/11 00:28:33;;;;;;;30.25;20.02;;;-0.50;99.90;;;-1.67;100.00;100627.97;4203497;28;20033;-72
2022/12/11 00:30:37;;;;;;;28.27;20.17;;;-0.50;99.90;;;-1.70;100.00;100625.56;4203445;28;20480;-73
2022/12/11 00:32:38;;;;;;;32.35;21.60;;;-0.50;99.90;;;-1.75;100.00;100615.47;4202071;28;20555;-73
2022/12/11 00:34:39;;;;;;;34.40;22.00;;;-0.50;99.90;;;-1.76;100.00;100620.72;4203221;28;20035;-72
2022/12/11 00:36:40;;;;;;;28.23;19.73;;;-0.50;99.90;;;-1.75;100.00;100624.97;4203409;28;20131;-72
2022/12/11 00:38:41;;;;;;;28.42;21.27;;;-0.50;99.90;;;-1.76;100.00;100626.72;4203374;28;20091;-72
2022/12/11 00:40:43;;;;;;;31.52;21.27;;;-0.50;99.90;;;-1.72;100.00;100622.22;4202104;28;20054;-73
2022/12/11 00:42:45;;;;;;;31.10;20.95;;;-0.50;99.90;;;-1.74;100.00;100611.16;4218572;28;20419;-72
2022/12/11 00:44:46;;;;;;;29.08;20.88;;;-0.50;99.90;;;-1.67;100.00;100619.41;4202086;28;20033;-73
2022/12/11 00:46:47;;;;;;;31.92;22.15;;;-0.40;99.90;;;-1.68;100.00;100608.22;4201974;28;20020;-73
2022/12/11 00:48:48;;;;;;;31.52;21.50;;;-0.40;99.90;;;-1.59;100.00;100617.25;4202970;28;20021;-72
2022/12/11 00:50:49;;;;;;;29.83;21.40;;;-0.30;99.90;;;-1.54;100.00;100617.81;4201785;28;20131;-72
2022/12/11 00:52:50;;;;;;;30.38;20.50;;;-0.30;99.90;;;-1.47;100.00;100617.44;4201942;28;20027;-72
2022/12/11 00:54:51;;;;;;;26.90;20.67;;;-0.20;99.90;;;-1.42;100.00;100610.25;4203100;28;20024;-73
2022/12/11 00:56:55;;;;;;;30.92;22.45;;;-0.20;99.90;;;-1.38;100.00;100601.41;4202993;28;20028;-72
2022/12/11 00:58:56;;;;;;;31.48;22.60;;;-0.10;99.90;;;-1.26;100.00;100600.72;4201692;28;20029;-73
2022/12/11 01:01:09;;;;;;;30.92;21.85;;;0.00;99.90;;;-1.13;100.00;100600.84;4201567;28;20031;-73
2022/12/11 01:03:13;;;;;;;27.52;20.95;;;0.10;99.90;;;-1.01;100.00;100605.34;4201576;28;20396;-73
2022/12/11 01:05:14;;;;;;;31.38;22.70;;;0.20;99.90;;;-0.92;100.00;100599.66;4202876;28;20024;-73
2022/12/11 01:07:15;;;;;;;32.10;20.35;;;0.30;99.90;;;-0.84;100.00;100594.91;4184779;28;20033;-73
2022/12/11 01:11:36;;;;;;;32.80;22.10;;;0.50;99.90;;;-0.63;100.00;100595.41;4203039;28;20078;-72
2022/12/11 01:13:38;;;;;;;29.95;21.52;;;0.60;99.90;;;-0.48;100.00;100617.84;4201423;28;20032;-73
2022/12/11 01:15:43;;;;;;;31.95;23.75;;;0.70;99.90;;;-0.39;100.00;100612.13;4201190;28;20036;-72
2022/12/11 01:17:44;;;;;;;34.70;23.63;;;0.80;99.90;;;-0.31;100.00;100609.91;4201406;28;20507;-72
2022/12/11 01:19:45;;;;;;;34.10;23.45;;;0.90;99.90;;;-0.21;100.00;100610.22;4201392;28;20036;-73
2022/12/11 01:21:46;;;;;;;29.35;22.05;;;1.00;99.90;;;-0.13;100.00;100611.41;4184573;28;20455;-72
2022/12/11 01:23:50;;;;;;;30.30;21.10;;;1.10;99.90;;;-0.06;100.00;100601.53;4202627;28;20027;-73
2022/12/11 01:25:51;;;;;;;27.90;20.50;;;1.10;99.90;;;0.05;100.00;100608.63;4201355;28;20024;-72
2022/12/11 01:27:53;;;;;;;32.90;20.90;;;1.20;99.90;;;0.09;100.00;100589.38;4201080;28;20431;-73
2022/12/11 01:29:54;;;;;;;27.52;19.55;;;1.30;99.90;;;0.14;100.00;100598.56;4201187;28;20025;-73
2022/12/11 01:31:55;;;;;;;31.33;20.25;;;1.30;99.90;;;0.22;100.00;100603.25;4202649;28;20036;-73
2022/12/11 01:33:56;;;;;;;28.73;19.90;;;1.40;99.90;;;0.22;100.00;100596.31;4202256;28;20052;-73
2022/12/11 01:35:57;;;;;;;29.02;19.92;;;1.40;99.90;;;0.26;100.00;100587.44;4202518;28;20017;-73
2022/12/11 01:37:58;;;;;;;23.73;17.17;;;1.50;99.90;;;0.34;100.00;100587.78;4201049;28;20033;-72
2022/12/11 01:40:00;;;;;;;28.23;19.80;;;1.50;99.90;;;0.35;100.00;100586.03;4201215;28;20035;-73
2022/12/11 01:42:01;;;;;;;25.92;17.95;;;1.50;99.90;;;0.36;100.00;100587.69;4201305;28;20111;-73
2022/12/11 01:44:29;;;;;;;26.77;19.00;;;1.50;99.90;;;0.38;100.00;100585.84;4202264;28;20058;-73
2022/12/11 01:46:33;;;;;;;28.63;16.52;;;1.60;99.90;;;0.39;100.00;100587.47;4202205;28;20055;-73
2022/12/11 01:48:34;;;;;;;22.10;14.48;;;1.60;99.90;;;0.43;100.00;100584.63;4200932;28;20032;-73
2022/12/11 01:51:05;;;;;;;24.33;15.63;;;1.60;99.90;;;0.49;100.00;100583.38;4200819;28;20038;-73
2022/12/11 01:53:11;;;;;;;25.10;14.82;;;1.70;99.90;;;0.53;100.00;100579.69;4196349;28;20037;-73
2022/12/11 01:55:12;;;;;;;23.27;14.90;;;1.70;99.90;;;0.59;100.00;100579.31;4201040;28;20032;-73
2022/12/11 01:57:14;;;;;;;22.83;13.70;;;1.80;99.90;;;0.63;100.00;100585.94;4202024;28;20032;-73
2022/12/11 01:59:23;;;;;;;20.83;13.05;;;1.80;99.90;;;0.68;100.00;100591.69;4201905;28;20068;-73
2022/12/11 02:01:46;;;;;;;22.33;14.60;;;1.90;99.90;;;0.72;100.00;100589.75;4202125;28;20067;-73
2022/12/11 02:03:47;;;;;;;19.80;13.30;;;1.90;99.90;;;0.72;100.00;100585.38;4200632;28;20032;-73
2022/12/11 02:05:48;;;;;;;20.05;13.45;;;1.90;99.90;;;0.71;100.00;100583.72;4200834;28;20086;-73
2022/12/11 02:07:55;;;;;;;19.17;12.93;;;1.90;99.90;;;0.79;100.00;100588.41;4200779;28;20029;-72
2022/12/11 02:09:56;;;;;;;23.35;14.43;;;1.90;99.90;;;0.76;100.00;100592.03;4201891;28;20020;-73
2022/12/11 02:12:42;;;;;;;19.20;12.35;;;1.90;99.90;;;0.84;100.00;100599.31;4200638;28;20028;-73
2022/12/11 02:15:16;;;;;;;21.77;13.30;;;2.00;99.90;;;0.88;100.00;100596.44;4173007;28;20092;-73
2022/12/11 02:17:55;;;;;;;19.85;13.00;;;2.10;99.90;;;0.89;100.00;100595.53;4190157;28;20054;-72
2022/12/11 02:20:02;;;;;;;19.05;12.73;;;2.10;99.90;;;0.93;100.00;100601.34;4167192;28;20033;-73
2022/12/11 02:22:10;;;;;;;22.73;13.10;;;2.10;99.90;;;0.93;100.00;100599.56;4167128;28;20037;-73
2022/12/11 02:24:20;;;;;;;18.27;12.07;;;2.20;99.90;;;0.97;100.00;100602.81;4152883;28;20036;-73
2022/12/11 02:26:39;;;;;;;17.58;11.50;;;2.10;99.90;;;0.96;100.00;100598.53;4197903;28;20063;-73
2022/12/11 02:28:59;;;;;;;18.80;12.45;;;2.20;99.90;;;0.99;100.00;100591.38;4200742;28;20029;-72
2022/12/11 02:31:14;;;;;;;17.33;10.52;;;2.20;99.90;;;0.98;100.00;100597.53;4200223;28;20028;-73
2022/12/11 02:33:18;;;;;;;16.63;11.13;;;2.20;99.90;;;1.01;100.00;100594.75;4200296;28;20027;-73
2022/12/11 02:35:53;;;;;;;;;;;2.20;99.90;;;1.02;100.00;100592.94;4201154;28;20044;-73
2022/12/11 02:38:02;;;;;;;17.15;10.23;;;2.20;99.90;;;1.06;100.00;100586.63;4163424;28;20455;-73
2022/12/11 02:40:06;;;;;;;14.82;11.07;;;2.30;99.90;;;1.06;100.00;100579.69;4184175;28;20029;-73
2022/12/11 02:42:10;;;;;;;18.00;10.35;;;2.30;99.90;;;1.10;100.00;100573.38;4200526;28;20033;-73
2022/12/11 02:44:13;;;;;;;16.67;10.55;;;2.30;99.90;;;1.13;100.00;100574.09;4200633;28;20032;-73
2022/12/11 02:46:17;;;;;;;13.27;9.63;;;2.30;99.90;;;1.13;100.00;100570.53;4200722;28;20021;-73
2022/12/11 02:48:21;;;;;;;14.68;9.52;;;2.30;99.90;;;1.14;100.00;100571.38;4200462;28;20450;-72
2022/12/11 02:50:23;;;;;;;12.43;8.13;;;2.30;99.90;;;1.13;100.00;100563.69;4200480;28;20432;-73
2022/12/11 02:52:27;;;;;;;15.48;10.30;;;2.30;99.90;;;1.13;100.00;100567.94;4200333;28;20107;-72
2022/12/11 02:54:34;;;;;;;13.75;10.13;;;2.30;99.90;;;1.10;100.00;100559.53;4199940;28;20016;-73
2022/12/11 02:57:04;;;;;;;16.38;9.43;;;2.30;99.90;;;1.04;100.00;100553.00;4200454;28;20052;-73
2022/12/11 02:59:14;;;;;;;15.73;9.25;;;2.30;99.90;;;0.91;100.00;100549.50;4212036;28;20040;-72
2022/12/11 03:01:15;;;;;;;15.50;9.75;;;2.20;99.90;;;0.85;100.00;100556.84;4216372;28;20041;-72
2022/12/11 03:03:16;;;;;;;13.63;9.30;;;2.10;99.90;;;0.71;100.00;100547.38;4217082;28;20034;-73
2022/12/11 03:05:17;;;;;;;13.65;8.98;;;2.00;99.90;;;0.64;100.00;100545.25;4197171;28;20078;-73
2022/12/11 03:07:28;;;;;;;14.02;9.15;;;1.90;99.90;;;0.60;100.00;100547.22;4200081;28;20028;-72
2022/12/11 03:09:29;;;;;;;15.15;9.60;;;1.80;99.90;;;0.55;100.00;100547.50;4183815;28;20056;-72
2022/12/11 03:11:30;;;;;;;14.20;8.40;;;1.70;99.90;;;0.54;100.00;100550.19;4200371;28;20017;-73
2022/12/11 03:13:30;;;;;;;15.85;8.93;;;1.70;99.90;;;0.52;100.00;100544.28;4201344;28;20430;-72
2022/12/11 03:16:01;;;;;;;12.20;8.32;;;1.70;99.90;;;0.52;100.00;100536.50;4199999;28;20070;-73
2022/12/11 03:18:31;;;;;;;14.50;8.95;;;1.70;99.90;;;0.51;100.00;100545.19;4194080;28;20134;-72
2022/12/11 03:21:05;;;;;;;14.70;8.98;;;1.70;99.90;;;0.42;100.00;100541.41;4200609;28;20032;-73
2022/12/11 03:23:08;;;;;;;12.77;9.00;;;1.70;99.90;;;0.42;100.00;100541.41;4185684;28;20487;-73
2022/12/11 03:25:21;;;;;;;14.13;8.68;;;1.60;99.90;;;0.46;100.00;100547.25;4201232;28;20026;-72
2022/12/11 03:27:58;;;;;;;12.00;7.95;;;1.60;99.90;;;0.51;100.00;100538.25;4200325;28;20064;-72
2022/12/11 03:30:14;;;;;;;15.48;8.98;;;1.70;99.90;;;0.57;100.00;100525.84;4200226;28;20035;-72
2022/12/11 03:32:23;;;;;;;14.52;7.95;;;1.80;99.90;;;0.65;100.00;100532.19;4200162;28;20475;-73
2022/12/11 03:34:44;;;;;;;13.70;9.00;;;1.80;99.90;;;0.71;100.00;100531.81;4200267;28;20059;-73
2022/12/11 03:36:48;;;;;;;11.10;7.57;;;1.90;99.90;;;0.73;100.00;100524.75;4201970;28;20040;-72
2022/12/11 03:38:58;;;;;;;13.95;8.10;;;1.90;99.90;;;0.77;100.00;100515.84;4200135;28;20407;-73
2022/12/11 03:41:02;;;;;;;11.32;8.07;;;1.90;99.90;;;0.80;100.00;100520.00;4200068;28;20072;-73
2022/12/11 03:43:06;;;;;;;16.27;8.88;;;1.90;99.90;;;0.80;100.00;100520.00;4201840;28;20028;-73
2022/12/11 03:45:08;;;;;;;12.60;8.70;;;1.90;99.90;;;0.83;100.00;100523.22;4204323;28;20040;-73
2022/12/11 03:47:09;;;;;;;14.88;9.20;;;2.00;99.90;;;0.83;100.00;100512.84;4203958;28;20362;-73
2022/12/11 03:49:19;;;;;;;15.85;9.02;;;2.00;99.90;;;0.89;100.00;100520.22;4202977;28;20517;-73
2022/12/11 03:51:23;;;;;;;13.23;8.93;;;2.00;99.90;;;0.91;100.00;100517.50;4202962;28;20052;-73
2022/12/11 03:53:26;;;;;;;13.82;8.82;;;2.10;99.90;;;0.92;100.00;100514.00;4202898;28;20025;-73
2022/12/11 03:55:29;;;;;;;15.95;8.90;;;2.10;99.90;;;0.96;100.00;100511.09;4202990;28;20032;-73
2022/12/11 03:57:35;;;;;;;14.85;9.93;;;2.10;99.90;;;0.99;100.00;100513.47;4202622;28;20043;-73
2022/12/11 03:59:37;;;;;;;13.43;9.23;;;2.10;99.90;;;1.02;100.00;100513.28;4202882;28;20037;-72
2022/12/11 04:01:38;;;;;;;14.05;9.98;;;2.10;99.90;;;1.03;100.00;100507.16;4202601;28;20040;-72
2022/12/11 04:03:39;;;;;;;11.52;8.63;;;2.20;99.90;;;1.05;100.00;100510.47;4203754;28;20113;-72
2022/12/11 04:05:44;;;;;;;15.30;9.13;;;2.20;99.90;;;1.04;100.00;100506.25;4203722;28;20036;-72
2022/12/11 04:07:45;;;;;;;14.75;8.35;;;2.20;99.90;;;1.06;100.00;100506.13;4202728;28;20067;-72
2022/12/11 04:09:46;;;;;;;17.05;10.45;;;2.20;99.90;;;1.04;100.00;100506.25;4203904;28;20107;-72
2022/12/11 04:11:47;;;;;;;16.80;10.50;;;2.20;99.90;;;1.06;100.00;100511.31;4202538;28;20451;-72
2022/12/11 04:15:00;;;;;;;16.15;10.27;;;2.20;99.90;;;1.05;100.00;100499.25;4202384;28;20519;-72
2022/12/11 04:16:11;;;;;;;19.15;11.45;;;2.20;99.90;;;1.07;100.00;100506.03;4203587;28;20095;-73
2022/12/11 04:25:11;;;;;;;17.38;11.70;;;2.30;99.90;;;1.11;100.00;100498.84;4202372;28;20160;-73
2022/12/11 04:27:11;;;;;;;19.48;12.63;;;2.30;99.90;;;1.09;100.00;100498.13;4203599;28;20406;-72
2022/12/11 04:29:13;;;;;;;16.83;11.90;;;2.30;99.90;;;1.09;100.00;100496.38;4202193;28;20012;-73
2022/12/11 04:31:20;;;;;;;16.20;10.05;;;2.30;99.90;;;1.08;100.00;100502.50;4202288;28;20020;-73
2022/12/11 04:33:21;;;;;;;16.67;11.38;;;2.30;99.90;;;1.06;100.00;100493.97;4202162;28;20408;-73
2022/12/11 04:35:23;;;;;;;17.75;12.20;;;2.30;99.90;;;1.09;100.00;100492.94;4202293;28;20035;-72
2022/12/11 04:37:23;;;;;;;17.23;11.63;;;2.30;99.90;;;1.09;100.00;100493.78;4202246;28;20159;-73
2022/12/11 04:39:24;;;;;;;18.25;12.23;;;2.30;99.90;;;1.13;100.00;100496.16;4202099;28;20051;-72
2022/12/11 04:41:25;;;;;;;17.33;12.68;;;2.30;99.90;;;1.14;100.00;100503.84;4201939;28;20024;-72
2022/12/11 04:43:26;;;;;;;17.35;11.52;;;2.30;99.90;;;1.13;100.00;100497.81;4202295;28;20560;-73
2022/12/11 04:45:27;;;;;;;19.30;12.02;;;2.30;99.90;;;1.13;100.00;100495.22;4202103;28;20020;-73
2022/12/11 04:47:28;;;;;;;20.70;13.15;;;2.40;99.90;;;1.16;100.00;100488.16;4203028;28;20032;-73
2022/12/11 04:49:29;;;;;;;22.40;12.85;;;2.40;99.90;;;1.13;100.00;100479.63;4203018;28;20048;-72
2022/12/11 04:51:30;;;;;;;21.52;13.15;;;2.40;99.90;;;1.21;100.00;100488.69;4203298;28;20020;-73
2022/12/11 04:53:31;;;;;;;19.08;11.50;;;2.40;99.90;;;1.21;100.00;100483.50;4202664;28;20016;-73
2022/12/11 04:55:32;;;;;;;16.80;10.73;;;2.40;99.90;;;1.24;100.00;100488.47;4201867;28;20401;-73
2022/12/11 04:57:33;;;;;;;20.33;13.57;;;2.40;99.90;;;1.26;100.00;100492.63;4201279;28;20029;-72
2022/12/11 04:59:34;;;;;;;24.50;15.88;;;2.40;99.90;;;1.24;100.00;100488.47;4203041;28;20024;-73
2022/12/11 05:01:35;;;;;;;21.20;13.13;;;2.40;99.90;;;1.25;100.00;100492.75;4202699;28;20104;-72
2022/12/11 05:03:36;;;;;;;18.88;11.63;;;2.50;99.90;;;1.30;100.00;100504.50;4202689;28;20056;-72
2022/12/11 05:05:37;;;;;;;20.02;12.50;;;2.50;99.90;;;1.32;100.00;100491.38;4202699;28;20028;-72
2022/12/11 05:07:38;;;;;;;23.15;13.38;;;2.50;99.90;;;1.29;100.00;100489.00;4203011;28;20516;-72
2022/12/11 05:09:39;;;;;;;23.13;13.00;;;2.50;99.90;;;1.29;100.00;100491.59;4203211;28;20033;-73
2022/12/11 05:11:40;;;;;;;24.38;13.68;;;2.50;99.90;;;1.32;100.00;100486.19;4201636;28;20021;-73
2022/12/11 05:13:43;;;;;;;21.38;12.90;;;2.40;99.90;;;1.33;100.00;100487.84;4202603;28;20016;-72
2022/12/11 05:15:44;;;;;;;19.60;11.77;;;2.50;99.90;;;1.28;100.00;100474.34;4202455;28;20049;-72
2022/12/11 05:17:44;;;;;;;19.70;11.68;;;2.50;99.90;;;1.28;100.00;100479.56;4202653;28;20054;-72
2022/12/11 05:19:50;;;;;;;18.63;11.57;;;2.50;99.90;;;1.27;100.00;100488.28;4202644;28;20074;-72
2022/12/11 05:21:51;;;;;;;15.02;10.27;;;2.40;99.90;;;1.26;100.00;100490.03;4201289;28;20028;-73
2022/12/11 05:23:52;;;;;;;21.10;12.95;;;2.40;99.90;;;1.23;100.00;100476.41;4201439;28;20035;-72
2022/12/11 05:25:56;;;;;;;18.35;10.77;;;2.40;99.90;;;1.24;100.00;100485.88;4201268;28;20028;-72
2022/12/11 05:27:57;;;;;;;15.95;11.15;;;2.40;99.90;;;1.20;100.00;100482.66;4201172;28;20119;-72
2022/12/11 05:29:58;;;;;;;16.10;11.07;;;2.40;99.90;;;1.17;100.00;100476.81;4201172;28;20035;-72
2022/12/11 05:31:59;;;;;;;15.88;10.52;;;2.40;99.90;;;1.19;100.00;100477.56;4201402;28;20035;-72
2022/12/11 05:33:59;;;;;;;21.73;11.98;;;2.40;99.90;;;1.19;100.00;100474.97;4201261;28;20091;-73
2022/12/11 05:36:00;;;;;;;16.98;11.02;;;2.40;99.90;;;1.15;100.00;100474.34;4202410;28;20075;-72
2022/12/11 05:38:01;;;;;;;15.23;10.30;;;2.40;99.90;;;1.17;100.00;100475.06;4200997;28;20112;-72
2022/12/11 05:40:05;;;;;;;15.57;9.73;;;2.30;99.90;;;1.16;100.00;100465.63;4202431;28;20028;-72
2022/12/11 05:42:06;;;;;;;18.03;10.70;;;2.30;99.90;;;1.14;100.00;100464.88;4201361;28;20173;-72
2022/12/11 05:44:09;;;;;;;18.77;10.85;;;2.30;99.90;;;1.11;100.00;100458.13;4201166;28;20044;-72
2022/12/11 05:46:22;;;;;;;18.35;11.93;;;2.30;99.90;;;1.13;100.00;100462.41;4200956;28;20071;-72
2022/12/11 05:48:23;;;;;;;15.93;10.40;;;2.30;99.90;;;1.06;100.00;100459.38;4202006;28;20028;-72
2022/12/11 05:50:24;;;;;;;17.33;10.85;;;2.30;99.90;;;1.09;100.00;100466.97;4200853;28;20048;-72
2022/12/11 05:52:26;;;;;;;18.83;11.27;;;2.30;99.90;;;1.07;100.00;100472.28;4202131;28;20020;-72
2022/12/11 05:54:26;;;;;;;17.42;11.25;;;2.20;99.90;;;1.04;100.00;100467.28;4202240;28;20476;-72
2022/12/11 05:56:31;;;;;;;17.13;10.20;;;2.20;99.90;;;1.00;100.00;100465.81;4202172;28;20031;-72
2022/12/11 05:58:33;;;;;;;19.40;12.13;;;2.20;99.90;;;1.00;100.00;100465.81;4200913;28;20033;-72
2022/12/11 06:00:34;;;;;;;18.08;10.88;;;2.20;99.90;;;1.02;100.00;100465.69;4200382;28;20052;-72
2022/12/11 06:02:36;;;;;;;16.77;10.45;;;2.20;99.90;;;1.02;100.00;100463.09;4202104;28;20035;-72
2022/12/11 06:04:37;;;;;;;18.20;11.65;;;2.20;99.90;;;1.01;100.00;100472.69;4200325;28;20024;-72
2022/12/11 06:06:39;;;;;;;17.90;10.63;;;2.20;99.90;;;0.95;100.00;100456.66;4201984;28;20025;-72
2022/12/11 06:08:40;;;;;;;17.23;10.77;;;2.20;99.90;;;0.96;100.00;100461.75;4200677;28;20028;-72
2022/12/11 06:10:48;;;;;;;17.13;10.38;;;2.20;99.90;;;0.94;100.00;100461.03;4200860;28;20028;-72
2022/12/11 06:12:49;;;;;;;16.45;10.45;;;2.20;99.90;;;0.95;100.00;100464.47;4201202;28;20059;-72
2022/12/11 06:14:50;;;;;;;15.80;9.32;;;2.20;99.90;;;0.97;100.00;100470.38;4201879;28;20400;-72
2022/12/11 06:16:51;;;;;;;14.48;10.07;;;2.20;99.90;;;0.95;100.00;100464.47;4201787;28;20028;-72
2022/12/11 06:18:52;;;;;;;15.48;9.93;;;2.20;99.90;;;0.95;100.00;100462.69;4201825;28;20399;-72
2022/12/11 06:20:53;;;;;;;15.05;9.60;;;2.20;99.90;;;0.96;100.00;100453.13;4200747;28;20020;-72
2022/12/11 06:22:54;;;;;;;15.00;9.68;;;2.20;99.90;;;0.93;100.00;100454.16;4201881;28;20085;-72
2022/12/11 06:24:55;;;;;;;15.43;9.82;;;2.20;99.90;;;0.91;100.00;100443.06;4200486;28;20421;-72
2022/12/11 06:26:56;;;;;;;15.40;9.73;;;2.20;99.90;;;0.90;100.00;100440.53;4200689;28;20102;-72
2022/12/11 06:28:56;;;;;;;14.35;8.50;;;2.20;99.90;;;0.92;100.00;100444.72;4201804;28;20025;-72
2022/12/11 06:30:59;;;;;;;15.05;8.45;;;2.20;99.90;;;0.94;100.00;100450.63;4200351;28;20021;-72
2022/12/11 06:32:59;;;;;;;17.40;10.77;;;2.10;99.90;;;0.94;100.00;100442.00;4200273;28;20458;-72
2022/12/11 06:35:00;;;;;;;15.20;9.35;;;2.10;99.90;;;0.94;100.00;100445.44;4200609;28;20029;-72
2022/12/11 06:37:01;;;;;;;13.88;8.77;;;2.20;99.90;;;0.95;100.00;100449.72;4201779;28;20016;-72
2022/12/11 06:39:03;;;;;;;14.55;8.80;;;2.10;99.90;;;0.90;100.00;100433.59;4200735;28;20028;-72
2022/12/11 06:41:06;;;;;;;13.32;8.93;;;2.10;99.90;;;0.94;100.00;100442.84;4200656;28;20088;-72
2022/12/11 06:43:07;;;;;;;13.95;8.63;;;2.10;99.90;;;0.95;100.00;100452.31;4200572;28;20102;-72
2022/12/11 06:45:09;;;;;;;12.95;8.38;;;2.10;99.90;;;0.96;100.00;100446.16;4201657;28;20488;-72
2022/12/11 06:47:10;;;;;;;11.23;8.05;;;2.10;99.90;;;0.98;100.00;100446.06;4200149;28;20092;-72
2022/12/11 06:49:11;;;;;;;13.15;8.75;;;2.20;99.90;;;1.00;100.00;100441.59;4201520;28;20031;-72
2022/12/11 06:51:18;;;;;;;13.27;8.45;;;2.20;99.90;;;0.98;100.00;100436.53;4200450;28;20531;-72
2022/12/11 06:53:19;;;;;;;12.13;8.23;;;2.20;99.90;;;0.98;100.00;100435.69;4201517;28;20103;-72
2022/12/11 06:55:20;;;;;;;14.18;8.07;;;2.20;99.90;;;0.99;100.00;100440.75;4201537;28;20021;-72
2022/12/11 06:57:21;;;;;;;12.68;7.97;;;2.20;99.90;;;0.97;100.00;100441.81;4201295;28;20040;-72
2022/12/11 06:59:22;;;;;;;13.85;9.60;;;2.20;99.90;;;0.97;100.00;100445.25;4201242;28;20438;-72
2022/12/11 07:01:26;;;;;;;13.05;8.15;;;2.10;99.90;;;0.96;100.00;100440.13;4201556;28;20036;-72
2022/12/11 07:03:28;;;;;;;15.00;9.10;;;2.20;99.90;;;0.95;100.00;100447.13;4200172;28;20116;-72
2022/12/11 07:05:30;;;;;;;12.93;9.15;;;2.10;99.90;;;0.96;100.00;100437.53;4200141;28;20044;-72
2022/12/11 07:07:32;;;;;;;12.80;8.32;;;2.20;99.90;;;0.98;100.00;100446.91;4200104;28;20031;-72
2022/12/11 07:09:33;;;;;;;16.02;10.27;;;2.20;99.90;;;0.97;100.00;100445.25;4201739;28;20099;-72
2022/12/11 07:11:34;;;;;;;14.90;9.68;;;2.20;99.90;;;0.97;100.00;100445.25;4200400;28;20476;-72
2022/12/11 07:13:35;;;;;;;19.55;10.07;;;2.20;99.90;;;0.99;100.00;100447.72;4201327;28;20060;-72
2022/12/11 07:15:36;;;;;;;18.98;11.05;;;2.20;99.90;;;1.01;100.00;100449.31;4200024;28;20150;-72
2022/12/11 07:17:37;;;;;;;22.80;13.13;;;2.20;99.90;;;1.05;100.00;100457.69;4202942;28;20032;-72
2022/12/11 07:19:39;;;;;;;18.50;12.73;;;2.20;99.90;;;1.04;100.00;100454.28;4204608;28;20048;-72
2022/12/11 07:21:40;;;;;;;17.60;10.38;;;2.30;99.90;;;1.05;100.00;100453.34;4203261;28;20025;-72
2022/12/11 07:23:42;;;;;;;13.73;9.68;;;2.30;99.90;;;1.07;100.00;100456.69;4204516;28;20479;-72
2022/12/11 07:25:42;;;;;;;15.55;9.77;;;2.30;99.90;;;1.06;100.00;100451.59;4203295;28;20032;-72
2022/12/11 07:27:43;;;;;;;15.10;9.95;;;2.30;99.90;;;1.09;100.00;100460.00;4204154;28;20047;-72
2022/12/11 07:29:44;;;;;;;14.57;9.65;;;2.30;99.90;;;1.13;100.00;100459.81;4204326;28;20025;-72
2022/12/11 07:31:45;;;;;;;15.40;10.00;;;2.30;99.90;;;1.13;100.00;100457.19;4203162;28;20028;-72
2022/12/11 07:33:46;;;;;;;15.60;10.23;;;2.30;99.90;;;1.11;100.00;100463.31;4204196;28;20070;-72
2022/12/11 07:35:47;;;;;;;14.75;9.45;;;2.30;99.90;;;1.11;100.00;100458.13;4204389;28;20434;-72
2022/12/11 07:37:48;;;;;;;17.08;10.18;;;2.30;99.90;;;1.09;100.00;100453.97;4202855;28;20036;-72
2022/12/11 07:39:49;;;;;;;17.13;10.00;;;2.30;99.90;;;1.10;100.00;100455.66;4204242;28;20499;-72
2022/12/11 07:41:50;;;;;;;15.20;9.63;;;2.30;99.90;;;1.07;100.00;100461.03;4204260;28;20032;-72
2022/12/11 07:43:51;;;;;;;13.80;8.60;;;2.40;99.90;;;1.06;100.00;100459.38;4204268;28;20598;-72
2022/12/11 07:45:52;;;;;;;15.38;8.88;;;2.30;99.90;;;1.02;100.00;100443.16;4204066;28;20032;-72
2022/12/11 07:47:52;;;;;;;16.42;10.48;;;2.30;99.90;;;1.06;100.00;100460.22;4203848;28;20509;-72
2022/12/11 07:49:53;;;;;;;16.50;10.18;;;2.30;99.90;;;1.06;100.00;100457.63;4204132;28;20024;-72
2022/12/11 07:51:54;;;;;;;15.95;10.50;;;2.30;99.90;;;1.02;100.00;100453.53;4204033;28;20020;-72
2022/12/11 07:54:05;;;;;;;16.80;10.07;;;2.30;99.90;;;1.04;100.00;100461.25;4204028;28;20434;-72
2022/12/11 07:56:06;;;;;;;19.33;11.25;;;2.30;99.90;;;1.00;100.00;100450.22;4203215;28;20028;-72
2022/12/11 07:58:07;;;;;;;19.38;11.60;;;2.30;99.90;;;0.99;100.00;100458.09;4202786;28;20075;-72
2022/12/11 08:00:10;;;;;;;17.38;10.98;;;2.20;99.90;;;0.97;100.00;100455.63;4193509;28;20024;-72
2022/12/11 08:02:11;;;;;;;19.25;11.85;;;2.20;99.90;;;0.99;100.00;100460.69;4188516;28;20139;-72
2022/12/11 08:04:14;;;;;;;20.58;13.00;;;2.20;99.90;;;0.96;100.00;100461.75;4203809;28;20164;-72
2022/12/11 08:06:16;;;;;;;18.00;12.45;;;2.20;99.90;;;0.96;100.00;100458.31;4202548;28;20029;-72
2022/12/11 08:08:18;;;;;;;23.13;15.90;;;2.20;99.90;;;0.93;100.00;100458.50;4203700;28;20094;-72
2022/12/11 08:10:19;;;;;;;20.77;13.48;;;2.20;99.90;;;0.90;100.00;100449.16;4203611;28;20032;-72
2022/12/11 08:12:20;;;;;;;22.27;15.45;;;2.20;99.90;;;0.80;100.00;100434.31;4202774;28;20066;-72
2022/12/11 08:14:21;;;;;;;24.45;14.98;;;2.20;99.90;;;0.86;100.00;100442.53;4203466;28;20024;-72
2022/12/11 08:16:22;;;;;;;25.25;16.50;;;2.20;99.90;;;0.84;100.00;100438.34;4202585;28;20067;-72
2022/12/11 08:18:23;;;;;;;23.13;16.25;;;2.10;99.90;;;0.84;100.00;100444.38;4203352;28;20498;-72
2022/12/11 08:20:24;;;;;;;23.45;15.27;;;2.20;99.90;;;0.85;100.00;100438.25;4202572;28;20059;-72
2022/12/11 08:22:24;;;;;;;23.88;15.82;;;2.20;99.90;;;0.96;100.00;100435.78;4203696;28;20610;-72
2022/12/11 08:24:26;;;;;;;24.80;16.45;;;2.20;99.90;;;0.96;100.00;100437.53;4202387;28;20029;-72
2022/12/11 08:26:30;;;;;;;22.65;15.70;;;2.20;99.90;;;0.96;100.00;100433.19;4202365;28;20519;-72
2022/12/11 08:28:32;;;;;;;24.58;17.38;;;2.20;99.90;;;0.99;100.00;100438.16;4201609;28;20089;-72
2022/12/11 08:30:33;;;;;;;27.58;17.98;;;2.20;99.90;;;0.94;100.00;100439.41;4203551;28;20054;-72
2022/12/11 08:32:34;;;;;;;27.52;18.02;;;2.20;99.90;;;0.93;100.00;100438.56;4202096;28;20052;-72
2022/12/11 08:34:35;;;;;;;29.35;18.42;;;2.20;99.90;;;0.88;100.00;100434.63;4203376;28;20024;-73
2022/12/11 08:36:36;;;;;;;25.70;17.23;;;2.20;99.90;;;0.90;100.00;100432.75;4203406;28;20036;-72
2022/12/11 08:38:38;;;;;;;27.90;17.35;;;2.20;99.90;;;0.86;100.00;100428.72;4203346;28;20025;-72
2022/12/11 08:40:39;;;;;;;30.30;18.58;;;2.20;99.90;;;0.85;100.00;100429.63;4202111;28;20055;-72